x

La Perouse Bank (46206) Wave Buoy

12:00am - Wed 25th Apr 2018 All times are PDT. -7 hours from GMT.

  • Sig Wave height 8.9ft
  • Peak Period 14s
  • Wind
    9mph, 9mph gusts
  • Sea Temp 52°f
  • Air Temp 54°f
  • Sea Pressure 1018.9mb
  • La Perouse Bank
  • La Perouse Bank

More Historic Weather Station data

Upgrade to MSW Pro to gain access to the past 30 days of data for over 8000 Wavebouys and Weather Stations around the globe.

Join

Comparision Forecast

View Surf forecast
   
Wed 04/25 12:00am 9ft 14s 9 9 mph 1018.9mb 52f 54f
Tue 04/24 11:00pm 8.5ft 14s 9 11 mph 1018.7mb 52f 53f
10:00pm 8ft 13s 9 11 mph 1018.9mb 52f 53f
9:00pm 8ft 14s 9 11 mph 1019.1mb 52f 54f
8:00pm 7.5ft 14s 11 13 mph 1018.8mb 53f 54f
7:00pm 7.5ft 12s 11 13 mph 1019.1mb 53f 54f
6:00pm 8ft 14s 11 16 mph 1019.9mb 53f 53f
5:00pm 8ft 14s 13 18 mph 1020.9mb 53f 54f
4:00pm 7.5ft 14s 13 16 mph 1021.4mb 53f 53f
3:00pm 9ft 15s 9 11 mph 1022.2mb 53f 54f
2:00pm 8.5ft 16s 9 11 mph 1022.7mb 52f 53f
1:00pm 9ft 15s 7 11 mph 1023mb 52f 53f
12:00pm 10ft 16s 4 9 mph 1023.4mb 52f 53f
11:00am 9.5ft 12s 4 7 mph 1023.7mb 52f 52f
10:00am 9.5ft 16s 4 7 mph 1023.7mb 52f 52f
9:00am 10.5ft 16s 4 7 mph 1023.6mb 51f 52f
8:00am 9.5ft 14s 2 4 mph 1023.6mb 51f 52f
7:00am 9.5ft 15s 4 7 mph 1023.5mb 51f 51f
6:00am 10ft 15s 4 7 mph 1023.2mb 52f 51f
5:00am 9ft 15s 7 7 mph 1023.3mb 52f 51f
4:00am 8ft 11s 2 4 mph 1023.5mb 52f 51f
3:00am 9ft 16s 2 4 mph 1023.6mb 52f 51f
2:00am 8ft 17s 4 9 mph 1023.7mb 52f 52f
1:00am 8ft 12s 7 7 mph 1024mb 52f 52f
12:00am 7.5ft 11s 4 4 mph 1024mb 52f 52f
Mon 04/23 11:00pm 7ft 12s 2 4 mph 1023.9mb 52f 52f
10:00pm 7.5ft 12s 4 7 mph 1024.1mb 52f 52f
9:00pm 7.5ft 12s 7 9 mph 1024.1mb 53f 53f
8:00pm 8ft 11s 7 9 mph 1024.1mb 53f 53f
7:00pm 8ft 10s 7 9 mph 1024.4mb 53f 53f
6:00pm 8ft 10s 7 9 mph 1025.1mb 52f 53f
5:00pm 7ft 11s 4 7 mph 1025.7mb 52f 54f
4:00pm 5.5ft 10s 4 7 mph 1026.4mb 54f 53f
3:00pm 5ft 12s 2 7 mph 1027.3mb 53f 53f
2:00pm 4.5ft 11s  -  2 mph 1027.8mb 52f 53f
1:00pm 4.5ft 9s 7 7 mph 1027.9mb 52f 52f
12:00pm 4ft 10s 7 7 mph 1028.1mb 51f 51f
11:00am 4ft 12s 4 7 mph 1028.4mb 51f 51f
10:00am 4ft 13s 7 9 mph 1028.3mb 51f 50f
9:00am 4ft 12s 9 9 mph 1028.4mb 51f 50f
8:00am 4.5ft 8s 7 9 mph 1028.3mb 51f 50f
7:00am 5ft 13s 7 9 mph 1028mb 51f 50f
6:00am 5ft 10s 4 7 mph 1027.8mb 51f 49f
5:00am 5.5ft 11s 9 9 mph 1027.8mb 51f 49f
4:00am 6ft 10s 7 9 mph 1028mb 51f 49f
3:00am 6ft 12s 7 7 mph 1027.9mb 51f 49f
2:00am 6ft 12s 4 7 mph 1027.9mb 51f 49f
1:00am 6.5ft 12s 4 7 mph 1028mb 51f 50f
12:00am 6.5ft 12s 9 11 mph 1027.9mb 50f 49f
Sun 04/22 11:00pm 6.5ft 13s 13 16 mph 1028.2mb 51f 49f
10:00pm 6.5ft 12s 13 16 mph 1028.5mb 51f 49f
9:00pm 6.5ft 12s 16 18 mph 1028.7mb 51f 49f
8:00pm 7ft 14s 13 18 mph 1028.3mb 51f 49f
6:00pm 6.5ft 14s 13 16 mph 1029mb 51f 49f
5:00pm 6ft 13s 11 13 mph 1029.2mb 51f 49f
4:00pm 7ft 14s 9 11 mph 1029.8mb 51f 49f
3:00pm 7ft 14s 9 11 mph 1030.4mb 51f 48f
2:00pm 7ft 14s 11 13 mph 1030.9mb 51f 48f
1:00pm 7.5ft 8s 9 11 mph 1031mb 51f 47f
12:00pm 8ft 13s 4 9 mph 1031.4mb 51f 47f
11:00am 7.5ft 11s 7 9 mph 1031.2mb 50f 47f
10:00am 8ft 13s 7 11 mph 1031mb 50f 47f
9:00am 8ft 12s 4 9 mph 1030.9mb 50f 47f
8:00am 7ft 13s 4 4 mph 1031.1mb 50f 47f
7:00am 7ft 14s 7 11 mph 1030.9mb 50f 47f
6:00am 6.5ft 12s 9 11 mph 1030.6mb 50f 47f
5:00am 6.5ft 12s 9 11 mph 1030.6mb 50f 47f
4:00am 6ft 14s 11 13 mph 1030.9mb 50f 47f
3:00am 6.5ft 14s 9 11 mph 1030.8mb 50f 47f
2:00am 7ft 8s 11 13 mph 1030.9mb 50f 48f
1:00am 7.5ft 8s 9 13 mph 1031.2mb 50f 48f
12:00am 8ft 9s 11 16 mph 1031.1mb 50f 48f
Sat 04/21 11:00pm 8ft 9s 11 13 mph 1031.6mb 50f 48f
10:00pm 9ft 9s 11 13 mph 1031.8mb 50f 48f
9:00pm 9ft 8s 9 13 mph 1031.7mb 50f 48f
8:00pm 9.5ft 12s 11 13 mph 1031.4mb 50f 48f
7:00pm 10ft 8s 11 13 mph 1031.2mb 50f 49f
6:00pm 10ft 8s 11 13 mph 1031.5mb 50f 49f
5:00pm 10.5ft 9s 11 13 mph 1031.2mb 50f 49f
4:00pm 10ft 9s 11 16 mph 1031mb 50f 49f
3:00pm 10.5ft 9s 11 16 mph 1031.1mb 51f 49f
2:00pm 10ft 9s 11 16 mph 1031mb 51f 49f
1:00pm 10ft 9s 13 16 mph 1030.6mb 50f 49f
12:00pm 9.5ft 9s 13 18 mph 1030mb 50f 48f
11:00am 9.5ft 10s 4 7 mph 1029.5mb 50f 47f
10:00am 10ft 10s 11 13 mph 1028.7mb 50f 48f
9:00am 10.5ft 10s 9 13 mph 1028mb 50f 47f